Tropical Cyclones
[Index]
Main Index Home Page Stock Weather Photos Extreme Storms Discussion Storm News and Storm Chasing Reports Tropical Cyclones / Hurricanes / Typhoons Weather Data and Links Wild Fires / Bushfires Weather Observation Techniques Weather Picture Catalogue Tornado Pictures and Reports Stock Video Footage and DVDs for sale
Season 1993-1994 Tropical Cyclone SHARON Track Map
Season 1993-1994 Summaries: [BoM-AU] [JTWC-AU] [JTWC-SIO] [JTWC-SPAC] [JTWC-SH]
<<- Previous TC | JTWC 1993-1994 Season | Next TC ->>

click for intensity scale information  Lat/long Grid: Show Hide

 Date Labels: Show Hide

Joint Typhoon Warning Centre Cyclone Data

Name: SHARON

12 Mar 1994 12:00 UTC to 19 Mar 1994 00:00 UTC

    date/time    lat    long     hPa   cat  kts
1994-03-12 12   10.0   118.0                  15          
1994-03-12 18   10.1   117.3                  20          
1994-03-13 00   10.2   116.6                  20          
1994-03-13 06   10.4   116.0                  25          
1994-03-13 12   10.8   115.4                  30          
1994-03-13 18   11.2   114.9                  30          
1994-03-14 00   11.7   114.5                  35          
1994-03-14 06   12.3   114.1            1     40          
1994-03-14 12   13.0   113.9            1     45          
1994-03-14 18   13.6   113.7            2     55          
1994-03-15 00   14.3   113.5            2     70          
1994-03-15 06   15.1   113.3            3     85          
1994-03-15 12   16.0   113.0            4    100          
1994-03-15 18   16.7   112.8            4    100          
1994-03-16 00   17.3   112.6            4    110          
1994-03-16 06   18.0   112.3            4    110          
1994-03-16 12   18.4   111.5            3     95          
1994-03-16 18   18.7   110.4            3     85          
1994-03-17 00   18.9   109.7            3     75          
1994-03-17 06   19.1   109.2            2     65          
1994-03-17 12   19.4   108.6            2     55          
1994-03-17 18   19.9   107.7            1     45          
1994-03-18 00   20.7   106.3            1     40          
1994-03-18 06   21.3   105.5                  35          
1994-03-18 12   21.7   104.9                  30          
1994-03-18 18   22.1   104.4                  25          
1994-03-19 00   22.9   104.1                  25          
Winds are 1-min average.

Tropical cyclone tracks developed by Michael Bath using data from the Joint Typhoon Warning Centre Best Tracks and Google Maps.


[Australian Severe Weather index] [Copyright Notice] [Email Contacts] [Search This Site] [Privacy Policy]
Document: tropical_cyclone_sharon.htm Updated: 18 September 2016